Time;durP1;ratioP1;P1;durP2;ratioP2;P2;SDS_P1;SDS_P2;PMS_P1;PMS_P2;Temp;Humidity;BMP_temperature;BMP_pressure;BME280_temperature;BME280_humidity;BME280_pressure;Samples;Min_cycle;Max_cycle;Signal;HPM_P1;HPM_P2
2023/07/22 00:01:14;;;;;;;41.55;23.70;;;10.80;99.90;;;;;;5000078;28;20037;-78
2023/07/22 00:03:40;;;;;;;55.97;25.45;;;10.70;99.90;;;;;;5009285;28;20041;-78
2023/07/22 00:06:11;;;;;;;40.10;23.40;;;10.70;99.90;;;;;;5016277;28;20060;-78
2023/07/22 00:08:38;;;;;;;31.63;21.20;;;10.70;99.90;;;;;;5021862;28;20033;-78
2023/07/22 00:11:07;;;;;;;34.88;21.98;;;10.70;99.90;;;;;;5017617;28;20068;-78
2023/07/22 00:13:33;;;;;;;33.03;21.13;;;10.60;99.90;;;;;;5000632;28;20132;-78
2023/07/22 00:15:59;;;;;;;36.08;22.13;;;10.60;99.90;;;;;;5000758;28;20048;-78
2023/07/22 00:18:27;;;;;;;37.88;22.15;;;10.60;99.90;;;;;;5024591;28;20124;-78
2023/07/22 00:20:54;;;;;;;36.03;22.15;;;10.60;99.90;;;;;;5016340;28;20056;-78
2023/07/22 00:23:20;;;;;;;55.47;25.67;;;10.50;99.90;;;;;;5015631;28;20409;-78
2023/07/22 00:25:46;;;;;;;36.85;22.98;;;10.50;99.90;;;;;;5014975;28;20029;-78
2023/07/22 00:28:12;;;;;;;40.67;24.02;;;10.50;99.90;;;;;;5020274;28;20108;-78
2023/07/22 00:30:38;;;;;;;36.55;22.95;;;10.50;99.90;;;;;;5020146;28;20068;-78
2023/07/22 00:33:03;;;;;;;51.83;25.63;;;10.50;99.90;;;;;;5015432;28;20069;-78
2023/07/22 00:35:29;;;;;;;52.72;27.52;;;10.40;99.90;;;;;;5016300;28;20050;-78
2023/07/22 00:37:54;;;;;;;61.60;27.95;;;10.50;99.90;;;;;;5001942;28;20052;-78
2023/07/22 00:40:20;;;;;;;42.65;25.80;;;10.40;99.90;;;;;;5020587;28;20038;-78
2023/07/22 00:42:46;;;;;;;57.30;26.13;;;10.50;99.90;;;;;;4998716;28;20128;-78
2023/07/22 00:45:11;;;;;;;45.60;25.73;;;10.40;99.90;;;;;;5015819;28;20045;-79
2023/07/22 00:47:38;;;;;;;43.38;25.02;;;10.40;99.90;;;;;;5009506;28;20063;-79
2023/07/22 00:50:06;;;;;;;55.35;27.40;;;10.40;99.90;;;;;;5022187;28;20044;-79
2023/07/22 00:52:35;;;;;;;47.38;27.50;;;10.40;99.90;;;;;;4998023;28;20137;-79
2023/07/22 00:55:01;;;;;;;45.72;27.10;;;10.40;99.90;;;;;;5016062;28;20073;-79
2023/07/22 00:57:27;;;;;;;60.25;29.25;;;10.40;99.90;;;;;;5017978;28;20037;-79
2023/07/22 00:59:53;;;;;;;99.35;33.75;;;10.50;99.90;;;;;;5031712;28;20029;-79
2023/07/22 01:02:19;;;;;;;60.97;31.80;;;10.50;99.90;;;;;;5007591;28;20116;-77
2023/07/22 01:04:45;;;;;;;46.13;28.25;;;10.60;99.90;;;;;;5003987;28;20482;-77
2023/07/22 01:07:12;;;;;;;52.90;30.58;;;10.60;99.90;;;;;;5013369;28;20044;-76
2023/07/22 01:09:39;;;;;;;89.75;35.78;;;10.70;99.90;;;;;;5028194;28;20501;-76
2023/07/22 01:12:06;;;;;;;120.75;37.97;;;10.70;99.90;;;;;;5018464;28;20033;-76
2023/07/22 01:14:33;;;;;;;44.88;28.13;;;10.80;99.90;;;;;;5010956;28;20052;-76
2023/07/22 01:17:04;;;;;;;67.90;32.38;;;10.80;99.90;;;;;;5013430;28;20485;-76
2023/07/22 01:19:32;;;;;;;45.22;28.83;;;10.90;99.90;;;;;;5022289;28;20041;-76
2023/07/22 01:22:01;;;;;;;58.55;30.15;;;10.90;99.90;;;;;;4993586;28;20486;-76
2023/07/22 01:24:28;;;;;;;45.92;27.60;;;11.00;99.90;;;;;;4988741;28;20048;-76
2023/07/22 01:26:54;;;;;;;52.78;29.70;;;11.00;99.90;;;;;;5016337;28;20082;-76
2023/07/22 01:29:22;;;;;;;68.00;32.08;;;11.00;99.90;;;;;;5027147;28;20048;-76
2023/07/22 01:31:50;;;;;;;68.40;31.88;;;11.00;99.90;;;;;;5025728;28;20041;-76
2023/07/22 01:34:15;;;;;;;47.55;28.13;;;11.10;99.90;;;;;;5014050;28;20037;-76
2023/07/22 01:36:41;;;;;;;52.65;29.20;;;11.10;99.90;;;;;;5014129;28;20450;-76
2023/07/22 01:39:07;;;;;;;108.22;35.30;;;11.10;99.90;;;;;;5022660;28;20029;-76
2023/07/22 01:41:32;;;;;;;58.13;29.55;;;11.20;99.90;;;;;;5000297;28;20124;-76
2023/07/22 01:43:59;;;;;;;50.33;27.75;;;11.20;99.90;;;;;;5013947;28;20477;-76
2023/07/22 01:46:25;;;;;;;64.82;31.48;;;11.20;99.90;;;;;;4996851;28;20048;-76
2023/07/22 01:48:51;;;;;;;43.45;26.50;;;11.20;99.90;;;;;;5023859;28;20041;-76
2023/07/22 01:51:16;;;;;;;45.15;25.98;;;11.20;99.90;;;;;;5012810;28;20112;-76
2023/07/22 01:53:42;;;;;;;113.63;36.53;;;11.30;99.90;;;;;;5013343;28;20033;-76
2023/07/22 01:56:07;;;;;;;48.17;27.58;;;11.30;99.90;;;;;;5013732;28;20129;-76
2023/07/22 01:58:33;;;;;;;41.42;24.60;;;11.30;99.90;;;;;;5005013;28;20036;-76
2023/07/22 02:00:59;;;;;;;46.80;26.00;;;11.30;99.90;;;;;;5013785;28;20460;-76
2023/07/22 02:03:25;;;;;;;56.30;27.20;;;11.40;99.90;;;;;;4999743;28;20040;-76
2023/07/22 02:05:50;;;;;;;38.40;25.48;;;11.40;99.90;;;;;;5012087;28;20034;-76
2023/07/22 02:08:16;;;;;;;80.03;30.38;;;11.40;99.90;;;;;;5037818;28;20037;-76
2023/07/22 02:10:41;;;;;;;56.42;29.38;;;11.40;99.90;;;;;;5017542;28;20033;-76
2023/07/22 02:13:07;;;;;;;52.35;30.10;;;11.50;99.90;;;;;;5027854;28;20375;-76
2023/07/22 02:15:33;;;;;;;45.00;28.30;;;11.50;99.90;;;;;;5016966;28;20128;-76
2023/07/22 02:17:58;;;;;;;52.60;28.85;;;11.50;99.90;;;;;;5009535;28;20440;-76
2023/07/22 02:20:26;;;;;;;52.67;28.88;;;11.50;99.90;;;;;;5016397;28;20029;-75
2023/07/22 02:22:52;;;;;;;39.20;26.35;;;11.60;99.90;;;;;;5014565;28;20037;-76
2023/07/22 02:25:18;;;;;;;55.35;29.27;;;11.60;99.90;;;;;;5017468;28;20394;-76
2023/07/22 02:27:43;;;;;;;49.42;28.92;;;11.60;99.90;;;;;;5001200;28;20056;-76
2023/07/22 02:30:12;;;;;;;60.85;30.98;;;11.60;99.90;;;;;;5016805;28;20492;-76
2023/07/22 02:32:41;;;;;;;49.78;29.90;;;11.60;99.90;;;;;;5024900;28;20507;-76
2023/07/22 02:35:07;;;;;;;37.65;26.08;;;11.70;99.90;;;;;;5016919;28;20044;-76
2023/07/22 02:37:35;;;;;;;62.65;32.65;;;11.70;99.90;;;;;;5017036;28;20037;-76
2023/07/22 02:40:01;;;;;;;52.10;30.13;;;11.70;99.90;;;;;;5000102;28;20045;-76
2023/07/22 02:42:26;;;;;;;48.40;29.77;;;11.70;99.90;;;;;;5023951;28;20067;-76
2023/07/22 02:44:52;;;;;;;46.55;30.00;;;11.80;99.90;;;;;;5025059;28;20040;-76
2023/07/22 02:47:18;;;;;;;60.35;33.08;;;11.80;99.90;;;;;;5015328;28;20135;-76
2023/07/22 02:49:43;;;;;;;78.25;36.85;;;11.80;99.90;;;;;;5015730;28;20523;-76
2023/07/22 02:52:09;;;;;;;53.00;32.55;;;11.80;99.90;;;;;;5021431;28;20025;-76
2023/07/22 02:54:40;;;;;;;63.42;34.42;;;11.90;99.90;;;;;;5016829;28;20485;-76
2023/07/22 02:57:06;;;;;;;45.78;29.30;;;12.00;99.90;;;;;;5016952;28;20374;-76
2023/07/22 02:59:33;;;;;;;74.15;35.17;;;12.00;99.90;;;;;;5016908;28;20041;-76
2023/07/22 03:01:58;;;;;;;46.45;30.02;;;12.00;99.90;;;;;;5011559;28;20096;-76
2023/07/22 03:04:24;;;;;;;48.13;30.50;;;12.00;99.90;;;;;;4988596;28;20046;-76
2023/07/22 03:06:50;;;;;;;34.22;25.42;;;12.10;99.90;;;;;;4996826;28;20038;-76
2023/07/22 03:09:15;;;;;;;56.55;32.47;;;12.10;99.90;;;;;;4980827;28;20038;-75
2023/07/22 03:11:41;;;;;;;47.47;29.52;;;12.10;99.90;;;;;;5012324;28;20445;-76
2023/07/22 03:14:06;;;;;;;49.10;30.33;;;12.10;99.90;;;;;;5016682;28;20044;-76
2023/07/22 03:16:32;;;;;;;43.22;27.58;;;12.10;99.90;;;;;;5032791;28;20121;-76
2023/07/22 03:18:57;;;;;;;43.17;29.52;;;12.10;99.90;;;;;;5000105;28;20038;-76
2023/07/22 03:21:23;;;;;;;59.15;32.17;;;12.20;99.90;;;;;;5030701;28;20033;-76
2023/07/22 03:23:49;;;;;;;46.70;29.58;;;12.10;99.90;;;;;;5000084;28;20050;-76
2023/07/22 03:26:15;;;;;;;50.15;30.70;;;12.20;99.90;;;;;;5016184;28;20045;-76
2023/07/22 03:28:41;;;;;;;49.83;30.33;;;12.20;99.90;;;;;;5016568;28;20041;-76
2023/07/22 03:31:08;;;;;;;53.47;30.08;;;12.20;99.90;;;;;;4998336;28;20543;-76
2023/07/22 03:33:34;;;;;;;54.88;31.27;;;12.20;99.90;;;;;;5032861;28;20052;-76
2023/07/22 03:36:00;;;;;;;40.67;27.35;;;12.20;99.90;;;;;;5016155;28;20529;-75
2023/07/22 03:38:26;;;;;;;43.22;27.23;;;12.20;99.90;;;;;;5016117;28;20042;-75
2023/07/22 03:40:54;;;;;;;67.40;31.30;;;12.30;99.90;;;;;;5014499;28;20187;-75
2023/07/22 03:43:20;;;;;;;49.83;30.38;;;12.20;99.90;;;;;;5031208;28;20037;-75
2023/07/22 03:45:45;;;;;;;45.85;29.17;;;12.30;99.90;;;;;;5016853;28;20061;-75
2023/07/22 03:48:11;;;;;;;43.85;28.10;;;12.30;99.90;;;;;;5027337;28;20056;-75
2023/07/22 03:50:36;;;;;;;41.10;26.98;;;12.30;99.90;;;;;;5035663;28;20094;-76
2023/07/22 03:53:02;;;;;;;49.75;30.17;;;12.40;99.90;;;;;;5009375;28;20603;-76
2023/07/22 03:55:28;;;;;;;39.35;27.70;;;12.40;99.90;;;;;;5014998;28;20045;-76
2023/07/22 03:57:53;;;;;;;65.75;32.97;;;12.50;99.90;;;;;;5023686;28;20040;-76
2023/07/22 04:00:21;;;;;;;57.80;31.45;;;12.50;99.90;;;;;;5015643;28;20524;-76
2023/07/22 04:02:46;;;;;;;60.05;30.92;;;12.50;99.90;;;;;;5011370;28;20056;-76
2023/07/22 04:05:12;;;;;;;68.10;32.45;;;12.50;99.90;;;;;;5015059;28;20044;-76
2023/07/22 04:07:38;;;;;;;68.13;34.05;;;12.50;99.90;;;;;;5023672;28;20224;-76
2023/07/22 04:10:05;;;;;;;59.13;31.58;;;12.60;99.90;;;;;;4994295;28;20423;-76
2023/07/22 04:12:30;;;;;;;129.48;39.38;;;12.60;99.90;;;;;;5014834;28;20038;-76
2023/07/22 04:14:56;;;;;;;42.83;28.08;;;12.60;99.90;;;;;;5015500;28;20452;-76
2023/07/22 04:17:22;;;;;;;47.30;29.67;;;12.60;99.90;;;;;;5004522;28;20044;-75
2023/07/22 04:19:47;;;;;;;44.40;30.13;;;12.70;99.90;;;;;;5016803;28;20030;-75
2023/07/22 04:22:13;;;;;;;72.35;33.97;;;12.60;99.90;;;;;;5014808;28;20040;-76
2023/07/22 04:24:38;;;;;;;74.53;34.83;;;12.70;99.90;;;;;;5014912;28;20045;-76
2023/07/22 04:27:04;;;;;;;51.50;31.45;;;12.70;99.90;;;;;;5013568;28;20400;-76
2023/07/22 04:29:31;;;;;;;68.47;34.33;;;12.70;99.90;;;;;;5031303;28;20033;-76
2023/07/22 04:32:00;;;;;;;56.70;32.25;;;12.70;99.90;;;;;;5024492;28;20038;-76
2023/07/22 04:34:31;;;;;;;59.05;31.80;;;12.80;99.90;;;;;;5015089;28;20407;-76
2023/07/22 04:36:56;;;;;;;82.63;36.65;;;12.80;99.90;;;;;;5017313;28;20032;-76
2023/07/22 04:39:23;;;;;;;75.45;35.60;;;12.80;99.90;;;;;;5002476;28;20409;-76
2023/07/22 04:41:48;;;;;;;65.40;33.65;;;12.80;99.90;;;;;;5012255;28;20045;-76
2023/07/22 04:44:14;;;;;;;61.05;32.72;;;12.80;99.90;;;;;;5008922;28;20045;-76
2023/07/22 04:46:40;;;;;;;55.03;31.13;;;12.80;99.90;;;;;;5014843;28;20420;-76
2023/07/22 04:49:06;;;;;;;47.58;28.92;;;12.80;99.90;;;;;;5005326;28;20045;-76
2023/07/22 04:51:31;;;;;;;43.10;27.85;;;12.90;99.90;;;;;;5013640;28;20442;-76
2023/07/22 04:53:57;;;;;;;46.13;29.10;;;12.80;99.90;;;;;;4998267;28;20068;-76
2023/07/22 04:56:23;;;;;;;35.13;26.10;;;12.90;99.90;;;;;;5014754;28;20033;-76
2023/07/22 04:58:49;;;;;;;41.35;27.23;;;12.90;99.90;;;;;;5014107;28;20049;-76
2023/07/22 05:01:15;;;;;;;63.35;30.48;;;12.80;99.90;;;;;;5013153;28;20128;-76
2023/07/22 05:03:40;;;;;;;56.83;31.60;;;12.80;99.90;;;;;;5019882;28;20059;-76
2023/07/22 05:06:06;;;;;;;42.70;27.85;;;12.80;99.90;;;;;;5026551;28;20037;-76
2023/07/22 05:08:32;;;;;;;38.05;26.13;;;12.80;99.90;;;;;;5034264;28;20063;-75
2023/07/22 05:10:57;;;;;;;43.67;28.52;;;12.80;99.90;;;;;;5014931;28;20040;-76
2023/07/22 05:13:24;;;;;;;44.30;27.90;;;12.80;99.90;;;;;;5018863;28;20057;-76
2023/07/22 05:15:49;;;;;;;37.92;26.65;;;12.80;99.90;;;;;;5010398;28;20037;-76
2023/07/22 05:18:15;;;;;;;46.88;29.25;;;12.80;99.90;;;;;;5013703;28;20047;-76
2023/07/22 05:20:40;;;;;;;43.90;29.00;;;12.80;99.90;;;;;;5013021;28;20486;-76
2023/07/22 05:23:07;;;;;;;57.75;31.90;;;12.80;99.90;;;;;;5014045;28;20033;-76
2023/07/22 05:25:32;;;;;;;46.05;30.25;;;12.80;99.90;;;;;;5013857;28;20041;-76
2023/07/22 05:27:58;;;;;;;62.25;33.13;;;12.90;99.90;;;;;;5010929;28;20050;-76
2023/07/22 05:30:23;;;;;;;60.20;33.03;;;12.90;99.90;;;;;;5003778;28;20029;-76
2023/07/22 05:32:52;;;;;;;45.22;29.73;;;12.90;99.90;;;;;;5028800;28;20090;-75
2023/07/22 05:35:18;;;;;;;51.42;31.95;;;12.90;99.90;;;;;;5012258;28;20517;-75
2023/07/22 05:37:43;;;;;;;56.08;32.83;;;13.00;99.90;;;;;;5008085;28;20042;-76
2023/07/22 05:40:09;;;;;;;41.67;29.05;;;13.10;99.90;;;;;;5011519;28;20034;-76
2023/07/22 05:42:35;;;;;;;68.15;35.58;;;13.10;99.90;;;;;;5012467;28;20029;-76
2023/07/22 05:45:02;;;;;;;69.57;36.85;;;13.10;99.90;;;;;;4989536;28;20045;-76
2023/07/22 05:47:28;;;;;;;63.42;36.85;;;13.10;99.90;;;;;;5013908;28;20051;-76
2023/07/22 05:49:53;;;;;;;57.10;34.50;;;13.10;99.90;;;;;;5013866;28;20124;-76
2023/07/22 05:52:19;;;;;;;79.68;40.00;;;13.20;99.90;;;;;;5022104;28;20497;-76
2023/07/22 05:54:44;;;;;;;72.28;40.47;;;13.20;99.90;;;;;;5012467;28;20038;-76
2023/07/22 05:57:10;;;;;;;68.72;39.67;;;13.20;99.90;;;;;;5004763;28;20033;-76
2023/07/22 05:59:36;;;;;;;55.53;37.08;;;13.20;99.90;;;;;;5011371;28;20033;-76
2023/07/22 06:02:03;;;;;;;79.05;42.88;;;13.20;99.90;;;;;;5010463;28;20060;-76
2023/07/22 06:04:29;;;;;;;62.70;37.78;;;13.30;99.90;;;;;;5010543;28;20045;-76
2023/07/22 06:06:54;;;;;;;100.40;45.15;;;13.30;99.90;;;;;;5013425;28;20103;-76
2023/07/22 06:09:21;;;;;;;117.82;48.25;;;13.30;99.90;;;;;;5013187;28;20044;-77
2023/07/22 06:11:46;;;;;;;110.05;47.92;;;13.30;99.90;;;;;;5013241;28;20045;-76
2023/07/22 06:14:12;;;;;;;81.50;43.15;;;13.30;99.90;;;;;;5009151;28;20033;-76
2023/07/22 06:16:37;;;;;;;105.63;48.60;;;13.30;99.90;;;;;;5013531;28;20087;-76
2023/07/22 06:19:03;;;;;;;142.10;53.63;;;13.30;99.90;;;;;;5012977;28;20038;-76
2023/07/22 06:21:29;;;;;;;99.05;47.15;;;13.30;99.90;;;;;;5010363;28;20029;-76
2023/07/22 06:23:55;;;;;;;88.10;46.22;;;13.30;99.90;;;;;;5013113;28;20452;-76
2023/07/22 06:26:20;;;;;;;101.43;50.22;;;13.30;99.90;;;;;;5013777;28;20087;-76
2023/07/22 06:28:46;;;;;;;57.92;38.55;;;13.40;99.90;;;;;;5013575;28;20505;-76
2023/07/22 06:31:12;;;;;;;80.13;46.38;;;13.40;99.90;;;;;;5025297;28;20048;-76
2023/07/22 06:33:37;;;;;;;106.97;50.75;;;13.50;99.90;;;;;;5014655;28;20038;-76
2023/07/22 06:36:03;;;;;;;156.00;59.00;;;13.50;99.90;;;;;;5012955;28;20038;-76
2023/07/22 06:38:29;;;;;;;102.45;52.05;;;13.60;99.90;;;;;;5013325;28;20053;-76
2023/07/22 06:40:55;;;;;;;83.38;48.42;;;13.70;99.90;;;;;;5024628;28;20037;-76
2023/07/22 06:43:20;;;;;;;104.65;53.35;;;13.80;99.90;;;;;;5002226;28;20037;-76
2023/07/22 06:45:46;;;;;;;62.08;40.85;;;14.00;99.90;;;;;;4996558;28;20048;-76
2023/07/22 06:48:12;;;;;;;98.97;51.40;;;14.20;99.90;;;;;;5014539;28;20040;-76
2023/07/22 06:50:37;;;;;;;80.97;47.20;;;14.30;99.90;;;;;;5001107;28;20075;-76
2023/07/22 06:53:03;;;;;;;56.33;39.15;;;14.30;99.90;;;;;;5019328;28;20039;-76
2023/07/22 06:55:29;;;;;;;60.22;40.72;;;14.40;99.90;;;;;;5030894;28;20073;-76
2023/07/22 06:57:59;;;;;;;83.65;49.22;;;14.50;99.90;;;;;;5016618;28;20064;-76
2023/07/22 07:00:25;;;;;;;92.00;50.70;;;14.60;99.90;;;;;;5017044;28;20042;-76
2023/07/22 07:02:51;;;;;;;64.00;41.65;;;14.70;99.90;;;;;;5007725;28;20034;-76
2023/07/22 07:05:17;;;;;;;63.63;41.17;;;14.80;99.90;;;;;;5016434;28;20040;-76
2023/07/22 07:07:42;;;;;;;59.33;39.20;;;14.80;99.90;;;;;;5015910;28;20099;-76
2023/07/22 07:10:08;;;;;;;82.00;43.83;;;14.80;99.90;;;;;;5016659;28;20124;-76
2023/07/22 07:12:34;;;;;;;54.05;37.97;;;14.80;99.90;;;;;;5011603;28;20124;-77
2023/07/22 07:15:00;;;;;;;60.15;39.88;;;14.80;99.90;;;;;;5026781;28;20504;-77
2023/07/22 07:17:25;;;;;;;66.82;40.63;;;14.70;99.90;;;;;;5018097;28;20037;-76
2023/07/22 07:19:51;;;;;;;46.90;34.75;;;14.70;99.90;;;;;;5014763;28;20040;-75
2023/07/22 07:22:17;;;;;;;47.13;35.78;;;14.80;99.90;;;;;;5014568;28;20041;-74
2023/07/22 07:24:42;;;;;;;49.42;35.50;;;14.90;99.90;;;;;;5014826;28;20489;-74
2023/07/22 07:27:08;;;;;;;65.53;41.40;;;14.90;99.90;;;;;;5015027;28;20068;-74
2023/07/22 07:29:33;;;;;;;47.97;36.67;;;15.00;99.90;;;;;;5014085;28;20029;-75
2023/07/22 07:31:59;;;;;;;57.25;38.38;;;15.10;99.90;;;;;;5022622;28;20588;-75
2023/07/22 07:34:24;;;;;;;60.88;38.50;;;15.10;99.90;;;;;;5008107;28;20049;-75
2023/07/22 07:36:50;;;;;;;48.88;35.70;;;15.20;99.90;;;;;;5014924;28;20120;-75
2023/07/22 07:39:16;;;;;;;40.22;31.67;;;15.30;99.90;;;;;;5012195;28;20118;-75
2023/07/22 07:41:41;;;;;;;46.95;34.22;;;15.40;99.90;;;;;;4996418;28;20044;-75
2023/07/22 07:44:07;;;;;;;47.10;34.75;;;15.40;99.90;;;;;;5013031;28;20038;-75
2023/07/22 07:46:32;;;;;;;39.78;31.50;;;15.40;99.90;;;;;;5016057;28;20053;-75
2023/07/22 07:49:01;;;;;;;44.15;33.88;;;15.40;99.90;;;;;;5013560;28;20509;-75
2023/07/22 07:51:27;;;;;;;45.53;33.75;;;15.50;99.90;;;;;;5018084;28;20523;-75
2023/07/22 07:53:54;;;;;;;43.50;31.45;;;15.50;99.90;;;;;;5024647;28;20049;-75
2023/07/22 07:56:20;;;;;;;37.85;30.60;;;15.60;99.90;;;;;;5031097;28;20493;-75
2023/07/22 07:58:47;;;;;;;35.15;28.45;;;15.60;99.90;;;;;;5013288;28;20694;-75
2023/07/22 08:01:13;;;;;;;38.42;29.52;;;15.70;99.90;;;;;;5006502;28;20224;-75
2023/07/22 08:03:41;;;;;;;42.85;30.98;;;15.70;99.90;;;;;;5012928;28;20408;-75
2023/07/22 08:06:07;;;;;;;39.15;31.08;;;15.80;99.90;;;;;;5011139;28;20029;-74
2023/07/22 08:08:33;;;;;;;49.90;33.38;;;15.80;99.90;;;;;;5041778;28;20493;-75
2023/07/22 08:11:03;;;;;;;34.92;27.80;;;15.90;99.90;;;;;;5015487;28;20041;-75
2023/07/22 08:13:33;;;;;;;29.75;25.13;;;16.00;99.90;;;;;;5009373;28;20047;-74
2023/07/22 08:16:03;;;;;;;34.20;27.67;;;16.10;99.90;;;;;;5009983;28;20064;-74
2023/07/22 08:18:29;;;;;;;38.40;29.52;;;16.30;99.90;;;;;;5014536;28;20049;-74
2023/07/22 08:20:56;;;;;;;37.15;28.60;;;16.40;99.90;;;;;;5020079;28;20045;-74
2023/07/22 08:23:22;;;;;;;43.22;30.13;;;16.40;99.90;;;;;;5015207;28;20080;-74
2023/07/22 08:25:48;;;;;;;82.78;35.22;;;16.30;99.90;;;;;;5015075;28;20068;-75
2023/07/22 08:28:14;;;;;;;58.20;32.25;;;16.30;99.90;;;;;;5006541;28;20042;-76
2023/07/22 08:30:40;;;;;;;79.85;37.22;;;16.20;99.90;;;;;;4997530;28;20409;-76
2023/07/22 08:33:07;;;;;;;47.67;31.83;;;16.20;99.90;;;;;;5014189;28;20116;-76
2023/07/22 08:35:39;;;;;;;57.60;33.03;;;16.10;99.90;;;;;;5023052;28;20042;-75
2023/07/22 08:38:05;;;;;;;93.28;39.20;;;16.00;99.90;;;;;;5012444;28;20029;-76
2023/07/22 08:40:38;;;;;;;58.50;34.25;;;15.90;99.90;;;;;;5048771;23;20048;-81
2023/07/22 08:43:05;;;;;;;47.65;31.58;;;16.00;99.90;;;;;;5010494;28;20061;-86
2023/07/22 08:45:36;;;;;;;69.65;37.40;;;16.20;99.90;;;;;;5011974;28;20034;-86
2023/07/22 08:48:09;;;;;;;73.43;38.90;;;16.30;99.90;;;;;;5011817;28;20624;-86
2023/07/22 08:50:49;;;;;;;38.55;29.38;;;16.40;99.90;;;;;;4996264;28;20569;-85
2023/07/22 08:53:15;;;;;;;31.38;25.35;;;16.60;99.90;;;;;;5022507;28;20037;-85
2023/07/22 08:55:41;;;;;;;47.28;28.13;;;16.70;99.90;;;;;;4997544;28;20044;-85
2023/07/22 08:58:11;;;;;;;55.85;28.65;;;16.60;99.90;;;;;;5011931;28;20049;-85
2023/07/22 09:00:39;;;;;;;43.67;29.88;;;16.50;99.90;;;;;;5030030;28;20047;-85
2023/07/22 09:03:05;;;;;;;44.25;29.33;;;16.50;99.90;;;;;;5014995;28;20045;-85
2023/07/22 09:05:33;;;;;;;44.97;30.77;;;16.40;99.90;;;;;;5031315;28;20496;-85
2023/07/22 09:07:59;;;;;;;35.58;26.77;;;16.50;99.90;;;;;;5031126;28;20244;-85
2023/07/22 09:10:27;;;;;;;45.00;30.02;;;16.60;99.90;;;;;;5030276;28;20041;-85
2023/07/22 09:12:53;;;;;;;41.03;29.00;;;16.70;99.90;;;;;;5013298;28;20594;-85
2023/07/22 09:15:20;;;;;;;43.85;30.02;;;16.90;99.90;;;;;;5008018;28;20124;-84
2023/07/22 09:17:46;;;;;;;55.92;33.17;;;17.10;99.90;;;;;;5020320;28;20100;-84
2023/07/22 09:20:16;;;;;;;49.53;31.00;;;17.20;99.90;;;;;;5014257;28;20033;-83
2023/07/22 09:22:52;;;;;;;41.10;30.02;;;17.40;99.90;;;;;;5029907;28;20720;-83
2023/07/22 09:25:22;;;;;;;41.65;27.15;;;17.50;99.90;;;;;;5030790;28;20049;-84
2023/07/22 09:27:50;;;;;;;27.58;22.50;;;17.60;99.90;;;;;;5031107;28;20049;-82
2023/07/22 09:30:33;;;;;;;28.75;23.15;;;17.70;99.90;;;;;;5014486;28;20041;-83
2023/07/22 09:33:22;;;;;;;32.50;25.65;;;17.80;99.90;;;;;;5013024;28;20519;-82
2023/07/22 09:35:49;;;;;;;26.13;22.67;;;17.90;99.90;;;;;;5029556;28;20076;-83
2023/07/22 09:38:21;;;;;;;25.02;21.60;;;17.90;99.90;;;;;;5014614;28;20029;-83
2023/07/22 09:40:47;;;;;;;24.15;21.63;;;17.80;99.90;;;;;;5031016;28;20069;-85
2023/07/22 09:43:13;;;;;;;37.17;25.83;;;17.60;99.90;;;;;;5001685;28;20068;-86
2023/07/22 09:45:39;;;;;;;31.00;25.00;;;17.60;99.90;;;;;;5014468;28;20128;-85
2023/07/22 09:48:05;;;;;;;28.67;24.23;;;17.40;99.90;;;;;;5015225;28;20037;-86
2023/07/22 09:50:31;;;;;;;26.75;22.95;;;17.30;99.90;;;;;;5016273;28;20041;-86
2023/07/22 09:52:59;;;;;;;31.52;24.77;;;17.30;99.90;;;;;;5013813;28;20041;-85
2023/07/22 09:55:29;;;;;;;29.77;23.73;;;17.30;99.90;;;;;;5023327;28;20124;-85
2023/07/22 09:57:58;;;;;;;33.42;26.05;;;17.30;99.90;;;;;;5012489;28;20038;-84
2023/07/22 10:00:27;;;;;;;41.70;30.08;;;17.40;99.90;;;;;;5027511;28;20124;-85
2023/07/22 10:02:56;;;;;;;25.95;21.15;;;17.40;99.90;;;;;;5013897;28;20042;-84
2023/07/22 10:05:22;;;;;;;19.65;16.92;;;17.50;99.90;;;;;;5014123;28;20088;-85
2023/07/22 10:07:55;;;;;;;19.27;17.30;;;17.60;99.90;;;;;;5013209;28;20041;-85
2023/07/22 10:10:30;;;;;;;20.65;18.30;;;17.70;99.90;;;;;;5015566;28;20041;-85
2023/07/22 10:12:57;;;;;;;19.73;17.73;;;17.80;99.90;;;;;;5029694;28;20520;-84
2023/07/22 10:15:25;;;;;;;23.65;20.90;;;17.90;99.90;;;;;;5013535;28;20521;-84
2023/07/22 10:17:53;;;;;;;17.48;15.73;;;17.90;99.90;;;;;;5028247;28;20041;-84
2023/07/22 10:20:19;;;;;;;19.17;17.17;;;17.70;99.90;;;;;;5027302;28;20081;-84
2023/07/22 10:22:47;;;;;;;22.05;19.88;;;17.90;99.90;;;;;;5027397;28;20447;-85
2023/07/22 10:25:15;;;;;;;16.40;14.70;;;17.80;99.90;;;;;;5017705;28;20040;-84
2023/07/22 10:27:41;;;;;;;21.02;18.85;;;17.90;99.90;;;;;;5016138;28;20045;-84
2023/07/22 10:30:15;;;;;;;19.70;17.60;;;17.90;99.90;;;;;;5014553;28;20516;-84
2023/07/22 10:32:51;;;;;;;37.47;20.40;;;17.90;99.90;;;;;;5031581;28;20492;-86
2023/07/22 10:35:29;;;;;;;19.98;17.88;;;17.90;99.90;;;;;;5034243;28;20453;-82
2023/07/22 10:37:55;;;;;;;18.20;16.38;;;17.70;99.90;;;;;;5032757;28;20120;-80
2023/07/22 10:40:24;;;;;;;20.92;18.10;;;17.60;99.90;;;;;;5016574;28;20124;-81
2023/07/22 10:42:54;;;;;;;21.35;19.10;;;17.40;99.90;;;;;;5033959;28;20041;-81
2023/07/22 10:45:34;;;;;;;20.02;17.90;;;17.30;99.90;;;;;;5032332;28;20141;-80
2023/07/22 10:48:02;;;;;;;27.05;20.65;;;17.10;99.90;;;;;;5017061;28;20513;-81
2023/07/22 10:50:53;;;;;;;31.40;16.83;;;17.00;99.90;;;;;;5033963;28;20049;-81
2023/07/22 10:53:25;;;;;;;26.52;19.02;;;16.80;99.90;;;;;;5034149;28;20044;-81
2023/07/22 10:56:14;;;;;;;27.92;20.83;;;16.60;99.90;;;;;;5015241;28;20124;-81
2023/07/22 10:58:48;;;;;;;22.90;18.75;;;16.40;99.90;;;;;;5021601;28;20413;-81
2023/07/22 11:01:27;;;;;;;43.42;23.83;;;16.30;99.90;;;;;;5013818;28;20045;-83
2023/07/22 11:04:12;;;;;;;33.03;24.05;;;16.20;99.90;;;;;;5033095;28;20049;-84
2023/07/22 11:06:51;;;;;;;38.97;27.67;;;16.10;99.90;;;;;;5030049;28;20489;-83
2023/07/22 11:09:36;;;;;;;44.38;29.50;;;16.00;99.90;;;;;;5011568;28;20041;-81
2023/07/22 11:12:05;;;;;;;39.33;28.98;;;16.10;99.90;;;;;;5031801;28;20048;-82
2023/07/22 11:14:38;;;;;;;42.45;30.02;;;16.10;99.90;;;;;;5016329;28;20087;-82
2023/07/22 11:17:05;;;;;;;33.42;26.38;;;16.20;99.90;;;;;;5025821;28;20042;-82
2023/07/22 11:19:32;;;;;;;36.72;29.05;;;16.20;99.90;;;;;;5008179;28;20042;-83
2023/07/22 11:21:58;;;;;;;30.48;26.13;;;16.30;99.90;;;;;;5013445;28;20497;-82
2023/07/22 11:24:24;;;;;;;44.85;31.23;;;16.30;99.90;;;;;;4999183;28;20049;-82
2023/07/22 11:26:50;;;;;;;39.63;32.38;;;16.40;99.90;;;;;;5015848;28;20045;-82
2023/07/22 11:29:16;;;;;;;39.60;31.20;;;16.50;99.90;;;;;;5015791;28;20501;-82
2023/07/22 11:31:45;;;;;;;38.80;32.55;;;16.40;99.90;;;;;;5028614;28;20041;-82
2023/07/22 11:34:12;;;;;;;33.10;28.77;;;16.50;99.90;;;;;;5015291;28;20561;-82
2023/07/22 11:36:37;;;;;;;26.92;24.25;;;16.50;99.90;;;;;;5031542;28;20052;-82
2023/07/22 11:39:09;;;;;;;31.75;28.55;;;16.50;99.90;;;;;;5012401;28;20490;-82
2023/07/22 11:41:35;;;;;;;47.05;36.72;;;16.50;99.90;;;;;;5013077;28;20361;-82
2023/07/22 11:44:08;;;;;;;45.25;38.17;;;16.50;99.90;;;;;;5016219;28;20041;-82
2023/07/22 11:46:46;;;;;;;41.63;34.45;;;16.50;99.90;;;;;;5015508;28;20520;-82
2023/07/22 11:49:11;;;;;;;34.72;31.17;;;16.60;99.90;;;;;;5032328;28;20080;-82
2023/07/22 11:51:42;;;;;;;35.75;32.38;;;16.60;99.90;;;;;;5032503;28;20041;-82
2023/07/22 11:54:08;;;;;;;37.30;33.20;;;16.60;99.90;;;;;;5031981;28;20554;-82
2023/07/22 11:56:34;;;;;;;40.03;34.97;;;16.60;99.90;;;;;;5030067;28;20041;-81
2023/07/22 11:58:59;;;;;;;32.55;29.45;;;16.60;99.90;;;;;;5015580;28;20026;-81
2023/07/22 12:01:32;;;;;;;34.00;30.40;;;16.40;99.90;;;;;;5015978;28;20049;-81
2023/07/22 12:03:58;;;;;;;;;;;16.30;99.90;;;;;;5032373;28;20524;-82
2023/07/22 12:06:28;;;;;;;42.75;32.78;;;16.20;99.90;;;;;;5014214;28;19925;-81
2023/07/22 12:08:54;;;;;;;36.95;29.17;;;16.10;99.90;;;;;;5009210;28;20388;-82
2023/07/22 12:11:24;;;;;;;53.67;35.58;;;16.10;99.90;;;;;;5015180;28;20517;-81
2023/07/22 12:14:07;;;;;;;33.97;29.75;;;16.10;99.90;;;;;;5030141;28;20052;-81
2023/07/22 12:16:34;;;;;;;;;;;15.90;99.90;;;;;;5031296;28;20041;-81
2023/07/22 12:19:01;;;;;;;26.77;23.90;;;15.80;99.90;;;;;;5029394;28;19956;-81
2023/07/22 12:21:27;;;;;;;18.13;16.60;;;15.70;99.90;;;;;;5015573;28;20493;-81
2023/07/22 12:23:53;;;;;;;19.48;17.88;;;15.70;99.90;;;;;;5032071;28;20069;-81
2023/07/22 12:26:19;;;;;;;21.45;19.58;;;15.60;99.90;;;;;;5029577;28;20088;-81
2023/07/22 12:28:44;;;;;;;23.90;21.65;;;15.60;99.90;;;;;;5023454;28;20575;-82